PWSweather.com
Personal Weather Stations
Station Observations
IPORTUGA89
BarosaPT

BarosaPT

Lat: 39.754028, Lon: -8.843

Elevation: 98

Station Type: Davis Vp2

High Low Average
Temperature 70.2°F21.2°C 55.0°F12.8°C 59.8°F15.4°C
Dew Point 60.1°F15.6°C 53.6°F12.0°C 56.7°F13.7°C
Winds 10.1 mph 16.3 kmh Calm Calm 3.0 mph SSW4.8 kmh SSW
Wind Gusts 17.9 mph28.8 kmh -- 6.0 mph9.7 kmh
Humidity 96% 66% 90%
Pressure 30.15 in1021.0 mb 29.97 in1014.9 mb -
Precipitation 0.13 in3.3 mm - -
Hour Temp Dew Point Humidity Winds Wind Gusts Pressure Precip Precip Rate Daily Precip Total
12:02 AM 56.5°F13.6°C 54.9°F12.7°C 94% Calm Calm -- 30.15 in1021.0 mb 0.00 in0.0 mm 0.00 in0.0 mm 0.00 in0.0 mm
12:12 AM 56.8°F13.8°C 55.4°F13.0°C 95% Calm Calm -- 30.14 in1020.7 mb 0.00 in0.0 mm 0.00 in0.0 mm 0.00 in0.0 mm
12:22 AM 57.2°F14.0°C 55.8°F13.2°C 95% Calm Calm -- 30.15 in1021.0 mb 0.00 in0.0 mm 0.00 in0.0 mm 0.00 in0.0 mm
12:32 AM 57.7°F14.3°C 56.3°F13.5°C 95% Calm Calm -- 30.14 in1020.7 mb 0.00 in0.0 mm 0.00 in0.0 mm 0.00 in0.0 mm
12:42 AM 58.3°F14.6°C 56.8°F13.8°C 95% Calm Calm -- 30.14 in1020.7 mb 0.00 in0.0 mm 0.00 in0.0 mm 0.00 in0.0 mm
12:52 AM 58.5°F14.7°C 57.0°F13.9°C 95% Calm Calm -- 30.14 in1020.7 mb 0.00 in0.0 mm 0.00 in0.0 mm 0.00 in0.0 mm
01:03 AM 58.6°F14.8°C 57.2°F14.0°C 95% Calm Calm 0.9 mph1.4 kmh 30.14 in1020.7 mb 0.00 in0.0 mm 0.00 in0.0 mm 0.00 in0.0 mm
01:13 AM 58.6°F14.8°C 57.2°F14.0°C 95% Calm Calm 0.9 mph1.4 kmh 30.14 in1020.7 mb 0.00 in0.0 mm 0.00 in0.0 mm 0.00 in0.0 mm
01:23 AM 58.6°F14.8°C 57.2°F14.0°C 95% Calm Calm 2.0 mph3.2 kmh 30.14 in1020.7 mb 0.00 in0.0 mm 0.00 in0.0 mm 0.00 in0.0 mm
01:33 AM 58.8°F14.9°C 57.4°F14.1°C 95% Calm Calm 2.0 mph3.2 kmh 30.14 in1020.7 mb 0.00 in0.0 mm 0.00 in0.0 mm 0.00 in0.0 mm
01:43 AM 58.8°F14.9°C 57.4°F14.1°C 95% Calm Calm 2.9 mph4.7 kmh 30.14 in1020.7 mb 0.00 in0.0 mm 0.00 in0.0 mm 0.00 in0.0 mm
01:53 AM 58.6°F14.8°C 57.2°F14.0°C 95% Calm Calm 2.0 mph3.2 kmh 30.14 in1020.7 mb 0.00 in0.0 mm 0.00 in0.0 mm 0.00 in0.0 mm
02:03 AM 58.6°F14.8°C 57.2°F14.0°C 95% Calm Calm 0.9 mph1.4 kmh 30.14 in1020.7 mb 0.00 in0.0 mm 0.00 in0.0 mm 0.00 in0.0 mm
02:13 AM 58.6°F14.8°C 57.2°F14.0°C 95% Calm Calm -- 30.14 in1020.7 mb 0.00 in0.0 mm 0.00 in0.0 mm 0.00 in0.0 mm
02:24 AM 58.6°F14.8°C 57.2°F14.0°C 95% Calm Calm -- 30.14 in1020.7 mb 0.00 in0.0 mm 0.00 in0.0 mm 0.00 in0.0 mm
02:34 AM 58.8°F14.9°C 57.4°F14.1°C 95% Calm Calm -- 30.13 in1020.3 mb 0.00 in0.0 mm 0.00 in0.0 mm 0.00 in0.0 mm
02:44 AM 59.0°F15.0°C 57.6°F14.2°C 95% Calm Calm -- 30.13 in1020.3 mb 0.00 in0.0 mm 0.00 in0.0 mm 0.00 in0.0 mm
02:54 AM 58.8°F14.9°C 57.4°F14.1°C 95% Calm Calm -- 30.13 in1020.3 mb 0.00 in0.0 mm 0.00 in0.0 mm 0.00 in0.0 mm
03:04 AM 58.8°F14.9°C 57.4°F14.1°C 95% Calm Calm -- 30.13 in1020.3 mb 0.00 in0.0 mm 0.00 in0.0 mm 0.00 in0.0 mm
03:14 AM 58.8°F14.9°C 57.4°F14.1°C 95% Calm Calm -- 30.12 in1020.0 mb 0.00 in0.0 mm 0.00 in0.0 mm 0.00 in0.0 mm
03:24 AM 58.6°F14.8°C 57.2°F14.0°C 95% Calm Calm -- 30.12 in1020.0 mb 0.00 in0.0 mm 0.00 in0.0 mm 0.00 in0.0 mm
03:35 AM 58.5°F14.7°C 57.0°F13.9°C 95% Calm Calm -- 30.12 in1020.0 mb 0.00 in0.0 mm 0.00 in0.0 mm 0.00 in0.0 mm
03:45 AM 58.5°F14.7°C 57.0°F13.9°C 95% Calm Calm -- 30.12 in1020.0 mb 0.00 in0.0 mm 0.00 in0.0 mm 0.00 in0.0 mm
03:55 AM 58.3°F14.6°C 56.8°F13.8°C 95% Calm Calm -- 30.12 in1020.0 mb 0.00 in0.0 mm 0.00 in0.0 mm 0.00 in0.0 mm
04:05 AM 58.3°F14.6°C 56.8°F13.8°C 95% Calm Calm -- 30.12 in1020.0 mb 0.00 in0.0 mm 0.00 in0.0 mm 0.00 in0.0 mm
04:15 AM 58.3°F14.6°C 56.8°F13.8°C 95% Calm Calm -- 30.13 in1020.3 mb 0.00 in0.0 mm 0.00 in0.0 mm 0.00 in0.0 mm
04:25 AM 58.1°F14.5°C 56.7°F13.7°C 95% Calm Calm -- 30.13 in1020.3 mb 0.00 in0.0 mm 0.00 in0.0 mm 0.00 in0.0 mm
04:35 AM 57.7°F14.3°C 56.3°F13.5°C 95% Calm Calm -- 30.13 in1020.3 mb 0.00 in0.0 mm 0.00 in0.0 mm 0.00 in0.0 mm
04:45 AM 57.4°F14.1°C 55.9°F13.3°C 95% Calm Calm -- 30.13 in1020.3 mb 0.00 in0.0 mm 0.00 in0.0 mm 0.00 in0.0 mm
04:56 AM 57.0°F13.9°C 55.6°F13.1°C 95% Calm Calm -- 30.13 in1020.3 mb 0.00 in0.0 mm 0.00 in0.0 mm 0.00 in0.0 mm
05:06 AM 56.8°F13.8°C 55.4°F13.0°C 95% Calm Calm -- 30.13 in1020.3 mb 0.00 in0.0 mm 0.00 in0.0 mm 0.00 in0.0 mm
05:16 AM 56.5°F13.6°C 55.0°F12.8°C 95% Calm Calm -- 30.13 in1020.3 mb 0.00 in0.0 mm 0.00 in0.0 mm 0.00 in0.0 mm
05:26 AM 56.5°F13.6°C 55.0°F12.8°C 95% Calm Calm -- 30.13 in1020.3 mb 0.00 in0.0 mm 0.00 in0.0 mm 0.00 in0.0 mm
05:36 AM 56.5°F13.6°C 55.0°F12.8°C 95% Calm Calm -- 30.13 in1020.3 mb 0.00 in0.0 mm 0.00 in0.0 mm 0.00 in0.0 mm
05:46 AM 56.3°F13.5°C 54.9°F12.7°C 95% Calm Calm -- 30.13 in1020.3 mb 0.00 in0.0 mm 0.00 in0.0 mm 0.00 in0.0 mm
05:56 AM 56.1°F13.4°C 54.7°F12.6°C 95% Calm Calm -- 30.13 in1020.3 mb 0.00 in0.0 mm 0.00 in0.0 mm 0.00 in0.0 mm
06:07 AM 55.9°F13.3°C 54.5°F12.5°C 95% Calm Calm -- 30.13 in1020.3 mb 0.00 in0.0 mm 0.00 in0.0 mm 0.00 in0.0 mm
06:17 AM 55.9°F13.3°C 54.5°F12.5°C 95% Calm Calm -- 30.13 in1020.3 mb 0.00 in0.0 mm 0.00 in0.0 mm 0.00 in0.0 mm
06:27 AM 55.6°F13.1°C 54.1°F12.3°C 95% Calm Calm -- 30.13 in1020.3 mb 0.00 in0.0 mm 0.00 in0.0 mm 0.00 in0.0 mm
06:37 AM 55.6°F13.1°C 54.1°F12.3°C 95% Calm Calm -- 30.12 in1020.0 mb 0.00 in0.0 mm 0.00 in0.0 mm 0.00 in0.0 mm
06:47 AM 55.0°F12.8°C 53.6°F12.0°C 95% Calm Calm -- 30.13 in1020.3 mb 0.00 in0.0 mm 0.00 in0.0 mm 0.00 in0.0 mm
06:57 AM 55.0°F12.8°C 53.6°F12.0°C 95% Calm Calm -- 30.13 in1020.3 mb 0.00 in0.0 mm 0.00 in0.0 mm 0.00 in0.0 mm
07:07 AM 55.0°F12.8°C 53.6°F12.0°C 95% Calm Calm -- 30.13 in1020.3 mb 0.00 in0.0 mm 0.00 in0.0 mm 0.00 in0.0 mm
07:17 AM 55.2°F12.9°C 53.8°F12.1°C 95% Calm Calm -- 30.13 in1020.3 mb 0.01 in0.3 mm 0.06 in1.5 mm 0.01 in0.3 mm
07:27 AM 55.8°F13.2°C 54.3°F12.4°C 95% Calm Calm -- 30.13 in1020.3 mb 0.01 in0.3 mm 0.00 in0.0 mm 0.01 in0.3 mm
07:37 AM 55.9°F13.3°C 54.5°F12.5°C 95% Calm Calm -- 30.13 in1020.3 mb 0.01 in0.3 mm 0.00 in0.0 mm 0.01 in0.3 mm
07:47 AM 56.3°F13.5°C 55.2°F12.9°C 96% Calm Calm -- 30.14 in1020.7 mb 0.01 in0.3 mm 0.00 in0.0 mm 0.01 in0.3 mm
07:57 AM 56.8°F13.8°C 55.8°F13.2°C 96% Calm Calm -- 30.13 in1020.3 mb 0.01 in0.3 mm 0.00 in0.0 mm 0.01 in0.3 mm
08:07 AM 57.4°F14.1°C 55.9°F13.3°C 95% Calm Calm -- 30.13 in1020.3 mb 0.01 in0.3 mm 0.00 in0.0 mm 0.01 in0.3 mm
08:18 AM 57.7°F14.3°C 56.7°F13.7°C 96% Calm Calm 0.9 mph1.4 kmh 30.13 in1020.3 mb 0.00 in0.0 mm 0.00 in0.0 mm 0.01 in0.3 mm
08:28 AM 58.3°F14.6°C 57.2°F14.0°C 96% Calm Calm -- 30.13 in1020.3 mb 0.00 in0.0 mm 0.00 in0.0 mm 0.01 in0.3 mm
08:38 AM 58.8°F14.9°C 57.7°F14.3°C 96% Calm Calm -- 30.13 in1020.3 mb 0.00 in0.0 mm 0.00 in0.0 mm 0.01 in0.3 mm
08:48 AM 59.2°F15.1°C 58.1°F14.5°C 96% Calm Calm 2.0 mph3.2 kmh 30.13 in1020.3 mb 0.00 in0.0 mm 0.00 in0.0 mm 0.01 in0.3 mm
08:58 AM 59.4°F15.2°C 57.9°F14.4°C 95% Calm Calm 0.9 mph1.4 kmh 30.13 in1020.3 mb 0.00 in0.0 mm 0.00 in0.0 mm 0.01 in0.3 mm
09:08 AM 59.7°F15.4°C 58.6°F14.8°C 96% Calm Calm 2.0 mph3.2 kmh 30.12 in1020.0 mb 0.00 in0.0 mm 0.00 in0.0 mm 0.01 in0.3 mm
09:18 AM 59.7°F15.4°C 58.3°F14.6°C 95% Calm Calm 0.9 mph1.4 kmh 30.12 in1020.0 mb 0.00 in0.0 mm 0.00 in0.0 mm 0.01 in0.3 mm
09:28 AM 59.7°F15.4°C 58.3°F14.6°C 95% Calm Calm 2.0 mph3.2 kmh 30.13 in1020.3 mb 0.00 in0.0 mm 0.00 in0.0 mm 0.01 in0.3 mm
09:38 AM 60.1°F15.6°C 58.6°F14.8°C 95% Calm Calm -- 30.13 in1020.3 mb 0.00 in0.0 mm 0.00 in0.0 mm 0.01 in0.3 mm
09:48 AM 60.3°F15.7°C 58.8°F14.9°C 95% 0.9 mph ESE1.4 kmh ESE 2.0 mph3.2 kmh 30.12 in1020.0 mb 0.00 in0.0 mm 0.00 in0.0 mm 0.01 in0.3 mm
09:58 AM 60.8°F16.0°C 59.4°F15.2°C 95% 0.9 mph NE1.4 kmh NE 2.9 mph4.7 kmh 30.13 in1020.3 mb 0.00 in0.0 mm 0.00 in0.0 mm 0.01 in0.3 mm
10:09 AM 61.2°F16.2°C 59.4°F15.2°C 94% 2.0 mph NNE3.2 kmh NNE 4.0 mph6.4 kmh 30.13 in1020.3 mb 0.00 in0.0 mm 0.00 in0.0 mm 0.01 in0.3 mm
10:19 AM 62.1°F16.7°C 60.1°F15.6°C 93% 0.9 mph NNW1.4 kmh NNW 8.1 mph13.0 kmh 30.13 in1020.3 mb 0.00 in0.0 mm 0.00 in0.0 mm 0.01 in0.3 mm
10:29 AM 62.4°F16.9°C 59.4°F15.2°C 90% 2.0 mph NW3.2 kmh NW 4.9 mph7.9 kmh 30.12 in1020.0 mb 0.00 in0.0 mm 0.00 in0.0 mm 0.01 in0.3 mm
10:39 AM 63.0°F17.2°C 58.6°F14.8°C 86% 2.0 mph NE3.2 kmh NE 4.9 mph7.9 kmh 30.12 in1020.0 mb 0.00 in0.0 mm 0.00 in0.0 mm 0.01 in0.3 mm
10:49 AM 63.3°F17.4°C 58.1°F14.5°C 83% 2.9 mph NE4.7 kmh NE 4.9 mph7.9 kmh 30.11 in1019.6 mb 0.00 in0.0 mm 0.00 in0.0 mm 0.01 in0.3 mm
10:59 AM 63.9°F17.7°C 58.3°F14.6°C 82% 0.9 mph NE1.4 kmh NE 2.0 mph3.2 kmh 30.11 in1019.6 mb 0.00 in0.0 mm 0.00 in0.0 mm 0.01 in0.3 mm
11:09 AM 64.0°F17.8°C 58.5°F14.7°C 82% 2.0 mph NW3.2 kmh NW 4.9 mph7.9 kmh 30.11 in1019.6 mb 0.00 in0.0 mm 0.00 in0.0 mm 0.01 in0.3 mm
11:19 AM 64.0°F17.8°C 58.5°F14.7°C 82% 2.9 mph NW4.7 kmh NW 4.9 mph7.9 kmh 30.11 in1019.6 mb 0.00 in0.0 mm 0.00 in0.0 mm 0.01 in0.3 mm
11:29 AM 64.4°F18.0°C 58.5°F14.7°C 81% 2.0 mph NW3.2 kmh NW 4.0 mph6.4 kmh 30.11 in1019.6 mb 0.00 in0.0 mm 0.00 in0.0 mm 0.01 in0.3 mm
11:39 AM 64.6°F18.1°C 58.3°F14.6°C 80% 2.9 mph NW4.7 kmh NW 4.9 mph7.9 kmh 30.11 in1019.6 mb 0.00 in0.0 mm 0.00 in0.0 mm 0.01 in0.3 mm
11:49 AM 64.9°F18.3°C 58.6°F14.8°C 80% 2.9 mph NW4.7 kmh NW 4.9 mph7.9 kmh 30.10 in1019.3 mb 0.00 in0.0 mm 0.00 in0.0 mm 0.01 in0.3 mm
11:59 AM 65.5°F18.6°C 58.5°F14.7°C 78% 2.0 mph WNW3.2 kmh WNW 6.9 mph11.1 kmh 30.10 in1019.3 mb 0.00 in0.0 mm 0.00 in0.0 mm 0.01 in0.3 mm
12:09 PM 65.8°F18.8°C 58.1°F14.5°C 76% 2.9 mph WNW4.7 kmh WNW 6.9 mph11.1 kmh 30.10 in1019.3 mb 0.00 in0.0 mm 0.00 in0.0 mm 0.01 in0.3 mm
12:19 PM 66.0°F18.9°C 57.9°F14.4°C 75% 2.9 mph WSW4.7 kmh WSW 6.9 mph11.1 kmh 30.09 in1019.0 mb 0.00 in0.0 mm 0.00 in0.0 mm 0.01 in0.3 mm
12:29 PM 66.6°F19.2°C 58.5°F14.7°C 75% 0.9 mph SW1.4 kmh SW 4.0 mph6.4 kmh 30.09 in1019.0 mb 0.00 in0.0 mm 0.00 in0.0 mm 0.01 in0.3 mm
12:39 PM 67.6°F19.8°C 58.6°F14.8°C 73% 2.9 mph NW4.7 kmh NW 6.9 mph11.1 kmh 30.07 in1018.3 mb 0.00 in0.0 mm 0.00 in0.0 mm 0.01 in0.3 mm
12:49 PM 68.2°F20.1°C 58.5°F14.7°C 71% 2.0 mph WSW3.2 kmh WSW 8.1 mph13.0 kmh 30.06 in1017.9 mb 0.00 in0.0 mm 0.00 in0.0 mm 0.01 in0.3 mm
12:59 PM 69.3°F20.7°C 59.0°F15.0°C 70% 2.9 mph SSW4.7 kmh SSW 6.0 mph9.7 kmh 30.05 in1017.6 mb 0.00 in0.0 mm 0.00 in0.0 mm 0.01 in0.3 mm
01:09 PM 69.6°F20.9°C 58.6°F14.8°C 68% 4.0 mph S6.4 kmh S 8.1 mph13.0 kmh 30.06 in1017.9 mb 0.00 in0.0 mm 0.00 in0.0 mm 0.01 in0.3 mm
01:19 PM 70.2°F21.2°C 58.3°F14.6°C 66% 4.0 mph WSW6.4 kmh WSW 10.1 mph16.3 kmh 30.06 in1017.9 mb 0.00 in0.0 mm 0.00 in0.0 mm 0.01 in0.3 mm
01:29 PM 69.3°F20.7°C 58.6°F14.8°C 69% 4.9 mph NW7.9 kmh NW 10.1 mph16.3 kmh 30.05 in1017.6 mb 0.00 in0.0 mm 0.00 in0.0 mm 0.01 in0.3 mm
01:39 PM 68.7°F20.4°C 57.7°F14.3°C 68% 6.0 mph W9.7 kmh W 11.0 mph17.7 kmh 30.05 in1017.6 mb 0.00 in0.0 mm 0.00 in0.0 mm 0.01 in0.3 mm
01:49 PM 68.2°F20.1°C 58.1°F14.5°C 70% 6.9 mph NW11.1 kmh NW 15.0 mph24.1 kmh 30.05 in1017.6 mb 0.00 in0.0 mm 0.00 in0.0 mm 0.01 in0.3 mm
01:59 PM 67.6°F19.8°C 57.6°F14.2°C 70% 6.9 mph NW11.1 kmh NW 12.1 mph19.5 kmh 30.05 in1017.6 mb 0.00 in0.0 mm 0.00 in0.0 mm 0.01 in0.3 mm
02:09 PM 67.3°F19.6°C 57.9°F14.4°C 72% 8.1 mph WNW13.0 kmh WNW 14.1 mph22.7 kmh 30.05 in1017.6 mb 0.00 in0.0 mm 0.00 in0.0 mm 0.01 in0.3 mm
02:19 PM 67.1°F19.5°C 58.1°F14.5°C 73% 6.0 mph NW9.7 kmh NW 13.0 mph20.9 kmh 30.05 in1017.6 mb 0.00 in0.0 mm 0.00 in0.0 mm 0.01 in0.3 mm
02:29 PM 66.0°F18.9°C 57.9°F14.4°C 75% 6.9 mph WNW11.1 kmh WNW 12.1 mph19.5 kmh 30.05 in1017.6 mb 0.00 in0.0 mm 0.00 in0.0 mm 0.01 in0.3 mm
02:39 PM 64.9°F18.3°C 58.6°F14.8°C 80% 6.0 mph NW9.7 kmh NW 11.0 mph17.7 kmh 30.05 in1017.6 mb 0.00 in0.0 mm 0.00 in0.0 mm 0.01 in0.3 mm
02:49 PM 63.9°F17.7°C 59.2°F15.1°C 85% 4.9 mph WSW7.9 kmh WSW 8.9 mph14.3 kmh 30.05 in1017.6 mb 0.02 in0.5 mm 0.12 in3.0 mm 0.02 in0.5 mm
02:59 PM 62.8°F17.1°C 58.8°F14.9°C 87% 4.0 mph WNW6.4 kmh WNW 8.1 mph13.0 kmh 30.05 in1017.6 mb 0.03 in0.8 mm 0.06 in1.5 mm 0.05 in1.3 mm
03:09 PM 61.5°F16.4°C 58.3°F14.6°C 89% 4.9 mph WNW7.9 kmh WNW 10.1 mph16.3 kmh 30.05 in1017.6 mb 0.07 in1.8 mm 0.05 in1.3 mm 0.08 in2.0 mm
03:19 PM 61.0°F16.1°C 58.1°F14.5°C 90% 4.9 mph NW7.9 kmh NW 16.1 mph25.9 kmh 30.05 in1017.6 mb 0.09 in2.3 mm 0.12 in3.0 mm 0.10 in2.5 mm
03:29 PM 60.4°F15.8°C 57.7°F14.3°C 91% 8.1 mph NW13.0 kmh NW 17.9 mph28.8 kmh 30.06 in1017.9 mb 0.10 in2.5 mm 0.06 in1.5 mm 0.11 in2.8 mm
03:39 PM 59.5°F15.3°C 56.8°F13.8°C 91% 10.1 mph NW16.3 kmh NW 17.9 mph28.8 kmh 30.06 in1017.9 mb 0.11 in2.8 mm 0.06 in1.5 mm 0.12 in3.0 mm
03:49 PM 58.8°F14.9°C 56.1°F13.4°C 91% 8.9 mph NW14.3 kmh NW 15.0 mph24.1 kmh 30.05 in1017.6 mb 0.09 in2.3 mm 0.00 in0.0 mm 0.12 in3.0 mm
03:59 PM 58.8°F14.9°C 56.5°F13.6°C 92% 4.9 mph N7.9 kmh N 11.0 mph17.7 kmh 30.05 in1017.6 mb 0.08 in2.0 mm 0.00 in0.0 mm 0.12 in3.0 mm
04:09 PM 58.8°F14.9°C 56.5°F13.6°C 92% 2.9 mph NW4.7 kmh NW 4.9 mph7.9 kmh 30.04 in1017.3 mb 0.04 in1.0 mm 0.00 in0.0 mm 0.12 in3.0 mm
04:19 PM 59.0°F15.0°C 56.7°F13.7°C 92% 2.0 mph NNW3.2 kmh NNW 4.0 mph6.4 kmh 30.04 in1017.3 mb 0.02 in0.5 mm 0.00 in0.0 mm 0.12 in3.0 mm
04:29 PM 59.4°F15.2°C 57.0°F13.9°C 92% 0.9 mph NNW1.4 kmh NNW 2.0 mph3.2 kmh 30.04 in1017.3 mb 0.01 in0.3 mm 0.00 in0.0 mm 0.12 in3.0 mm
04:39 PM 59.5°F15.3°C 57.6°F14.2°C 93% 2.9 mph NW4.7 kmh NW 6.0 mph9.7 kmh 30.04 in1017.3 mb 0.00 in0.0 mm 0.00 in0.0 mm 0.12 in3.0 mm
04:49 PM 59.7°F15.4°C 57.7°F14.3°C 93% 2.9 mph NW4.7 kmh NW 6.9 mph11.1 kmh 30.03 in1016.9 mb 0.00 in0.0 mm 0.00 in0.0 mm 0.12 in3.0 mm
04:59 PM 59.7°F15.4°C 57.7°F14.3°C 93% 4.0 mph NW6.4 kmh NW 8.1 mph13.0 kmh 30.03 in1016.9 mb 0.00 in0.0 mm 0.00 in0.0 mm 0.12 in3.0 mm
05:09 PM 59.7°F15.4°C 57.7°F14.3°C 93% 4.0 mph NNW6.4 kmh NNW 10.1 mph16.3 kmh 30.03 in1016.9 mb 0.00 in0.0 mm 0.00 in0.0 mm 0.12 in3.0 mm
05:19 PM 59.4°F15.2°C 57.4°F14.1°C 93% 6.0 mph NW9.7 kmh NW 12.1 mph19.5 kmh 30.03 in1016.9 mb 0.01 in0.3 mm 0.06 in1.5 mm 0.13 in3.3 mm
05:29 PM 59.4°F15.2°C 57.4°F14.1°C 93% 2.9 mph NW4.7 kmh NW 6.9 mph11.1 kmh 30.03 in1016.9 mb 0.01 in0.3 mm 0.00 in0.0 mm 0.13 in3.3 mm
05:39 PM 59.4°F15.2°C 57.4°F14.1°C 93% 2.9 mph NW4.7 kmh NW 6.9 mph11.1 kmh 30.03 in1016.9 mb 0.01 in0.3 mm 0.00 in0.0 mm 0.13 in3.3 mm
05:49 PM 59.4°F15.2°C 57.4°F14.1°C 93% 2.0 mph WSW3.2 kmh WSW 8.9 mph14.3 kmh 30.03 in1016.9 mb 0.01 in0.3 mm 0.00 in0.0 mm 0.13 in3.3 mm
05:59 PM 59.4°F15.2°C 57.4°F14.1°C 93% 4.9 mph NNW7.9 kmh NNW 8.9 mph14.3 kmh 30.04 in1017.3 mb 0.01 in0.3 mm 0.00 in0.0 mm 0.13 in3.3 mm
06:10 PM 59.0°F15.0°C 57.0°F13.9°C 93% 4.0 mph NNW6.4 kmh NNW 8.1 mph13.0 kmh 30.04 in1017.3 mb 0.01 in0.3 mm 0.00 in0.0 mm 0.13 in3.3 mm
06:20 PM 58.8°F14.9°C 56.8°F13.8°C 93% 2.9 mph NNW4.7 kmh NNW 6.0 mph9.7 kmh 30.04 in1017.3 mb 0.00 in0.0 mm 0.00 in0.0 mm 0.13 in3.3 mm
06:30 PM 58.6°F14.8°C 56.7°F13.7°C 93% 2.0 mph NW3.2 kmh NW 4.9 mph7.9 kmh 30.03 in1016.9 mb 0.00 in0.0 mm 0.00 in0.0 mm 0.13 in3.3 mm
06:40 PM 58.5°F14.7°C 56.5°F13.6°C 93% 2.9 mph NW4.7 kmh NW 8.1 mph13.0 kmh 30.04 in1017.3 mb 0.00 in0.0 mm 0.00 in0.0 mm 0.13 in3.3 mm
06:50 PM 58.1°F14.5°C 56.1°F13.4°C 93% 4.9 mph N7.9 kmh N 11.0 mph17.7 kmh 30.03 in1016.9 mb 0.00 in0.0 mm 0.00 in0.0 mm 0.13 in3.3 mm
07:00 PM 57.9°F14.4°C 55.9°F13.3°C 93% 6.0 mph N9.7 kmh N 12.1 mph19.5 kmh 30.03 in1016.9 mb 0.00 in0.0 mm 0.00 in0.0 mm 0.13 in3.3 mm
07:10 PM 57.9°F14.4°C 55.9°F13.3°C 93% 4.0 mph NW6.4 kmh NW 8.1 mph13.0 kmh 30.03 in1016.9 mb 0.00 in0.0 mm 0.00 in0.0 mm 0.13 in3.3 mm
07:20 PM 57.9°F14.4°C 55.9°F13.3°C 93% 4.9 mph NW7.9 kmh NW 11.0 mph17.7 kmh 30.03 in1016.9 mb 0.00 in0.0 mm 0.00 in0.0 mm 0.13 in3.3 mm
07:30 PM 58.1°F14.5°C 55.8°F13.2°C 92% 4.0 mph NW6.4 kmh NW 8.9 mph14.3 kmh 30.03 in1016.9 mb 0.00 in0.0 mm 0.00 in0.0 mm 0.13 in3.3 mm
07:40 PM 58.1°F14.5°C 55.8°F13.2°C 92% 2.9 mph NW4.7 kmh NW 8.9 mph14.3 kmh 30.03 in1016.9 mb 0.00 in0.0 mm 0.00 in0.0 mm 0.13 in3.3 mm
07:50 PM 57.9°F14.4°C 55.6°F13.1°C 92% 4.0 mph NW6.4 kmh NW 14.1 mph22.7 kmh 30.03 in1016.9 mb 0.00 in0.0 mm 0.00 in0.0 mm 0.13 in3.3 mm
08:00 PM 57.9°F14.4°C 55.6°F13.1°C 92% 6.0 mph NW9.7 kmh NW 12.1 mph19.5 kmh 30.03 in1016.9 mb 0.00 in0.0 mm 0.00 in0.0 mm 0.13 in3.3 mm
08:10 PM 58.1°F14.5°C 55.4°F13.0°C 91% 6.0 mph NW9.7 kmh NW 13.0 mph20.9 kmh 30.02 in1016.6 mb 0.00 in0.0 mm 0.00 in0.0 mm 0.13 in3.3 mm
08:20 PM 58.3°F14.6°C 55.4°F13.0°C 90% 6.9 mph WNW11.1 kmh WNW 12.1 mph19.5 kmh 30.02 in1016.6 mb 0.00 in0.0 mm 0.00 in0.0 mm 0.13 in3.3 mm
08:30 PM 58.1°F14.5°C 55.2°F12.9°C 90% 6.9 mph N11.1 kmh N 15.0 mph24.1 kmh 30.02 in1016.6 mb 0.00 in0.0 mm 0.00 in0.0 mm 0.13 in3.3 mm
08:40 PM 57.9°F14.4°C 54.7°F12.6°C 89% 6.0 mph NNW9.7 kmh NNW 12.1 mph19.5 kmh 30.03 in1016.9 mb 0.00 in0.0 mm 0.00 in0.0 mm 0.13 in3.3 mm
08:50 PM 58.1°F14.5°C 54.9°F12.7°C 89% 4.9 mph NNW7.9 kmh NNW 10.1 mph16.3 kmh 30.03 in1016.9 mb 0.00 in0.0 mm 0.00 in0.0 mm 0.13 in3.3 mm
09:00 PM 58.3°F14.6°C 55.4°F13.0°C 90% 6.0 mph NW9.7 kmh NW 13.0 mph20.9 kmh 30.03 in1016.9 mb 0.00 in0.0 mm 0.00 in0.0 mm 0.13 in3.3 mm
09:10 PM 58.5°F14.7°C 55.2°F12.9°C 89% 8.1 mph N13.0 kmh N 16.1 mph25.9 kmh 30.02 in1016.6 mb 0.00 in0.0 mm 0.00 in0.0 mm 0.13 in3.3 mm
09:20 PM 58.5°F14.7°C 54.9°F12.7°C 88% 8.1 mph NW13.0 kmh NW 17.0 mph27.4 kmh 30.02 in1016.6 mb 0.00 in0.0 mm 0.00 in0.0 mm 0.13 in3.3 mm
09:30 PM 58.3°F14.6°C 54.7°F12.6°C 88% 4.9 mph NNW7.9 kmh NNW 10.1 mph16.3 kmh 30.02 in1016.6 mb 0.00 in0.0 mm 0.00 in0.0 mm 0.13 in3.3 mm
09:40 PM 58.3°F14.6°C 54.7°F12.6°C 88% 4.9 mph NNW7.9 kmh NNW 11.0 mph17.7 kmh 30.01 in1016.3 mb 0.00 in0.0 mm 0.00 in0.0 mm 0.13 in3.3 mm
09:50 PM 58.5°F14.7°C 54.9°F12.7°C 88% 6.0 mph NW9.7 kmh NW 12.1 mph19.5 kmh 30.01 in1016.3 mb 0.00 in0.0 mm 0.00 in0.0 mm 0.13 in3.3 mm
10:00 PM 58.5°F14.7°C 54.9°F12.7°C 88% 4.9 mph NW7.9 kmh NW 12.1 mph19.5 kmh 30.01 in1016.3 mb 0.00 in0.0 mm 0.00 in0.0 mm 0.13 in3.3 mm
10:10 PM 58.5°F14.7°C 55.2°F12.9°C 89% 4.9 mph NW7.9 kmh NW 10.1 mph16.3 kmh 30.01 in1016.3 mb 0.00 in0.0 mm 0.00 in0.0 mm 0.13 in3.3 mm
10:20 PM 58.5°F14.7°C 55.2°F12.9°C 89% 4.9 mph NW7.9 kmh NW 11.0 mph17.7 kmh 30.00 in1015.9 mb 0.00 in0.0 mm 0.00 in0.0 mm 0.13 in3.3 mm
10:30 PM 58.5°F14.7°C 55.2°F12.9°C 89% 6.9 mph N11.1 kmh N 12.1 mph19.5 kmh 30.00 in1015.9 mb 0.00 in0.0 mm 0.00 in0.0 mm 0.13 in3.3 mm
10:40 PM 58.5°F14.7°C 55.2°F12.9°C 89% 8.1 mph WNW13.0 kmh WNW 15.0 mph24.1 kmh 29.99 in1015.6 mb 0.00 in0.0 mm 0.00 in0.0 mm 0.13 in3.3 mm
10:50 PM 58.5°F14.7°C 55.2°F12.9°C 89% 4.9 mph NW7.9 kmh NW 12.1 mph19.5 kmh 29.99 in1015.6 mb 0.00 in0.0 mm 0.00 in0.0 mm 0.13 in3.3 mm
11:00 PM 58.5°F14.7°C 55.2°F12.9°C 89% 4.9 mph NNW7.9 kmh NNW 10.1 mph16.3 kmh 29.99 in1015.6 mb 0.01 in0.3 mm 0.01 in0.3 mm 0.14 in3.6 mm
11:10 PM 58.3°F14.6°C 55.4°F13.0°C 90% 4.9 mph N7.9 kmh N 10.1 mph16.3 kmh 29.99 in1015.6 mb 0.01 in0.3 mm 0.00 in0.0 mm 0.14 in3.6 mm
11:20 PM 57.9°F14.4°C 55.0°F12.8°C 90% 4.0 mph NW6.4 kmh NW 8.1 mph13.0 kmh 29.98 in1015.2 mb 0.01 in0.3 mm 0.00 in0.0 mm 0.14 in3.6 mm
11:30 PM 57.7°F14.3°C 54.9°F12.7°C 90% 2.9 mph NW4.7 kmh NW 6.9 mph11.1 kmh 29.98 in1015.2 mb 0.01 in0.3 mm 0.00 in0.0 mm 0.14 in3.6 mm
11:40 PM 57.6°F14.2°C 55.0°F12.8°C 91% 2.9 mph NW4.7 kmh NW 6.9 mph11.1 kmh 29.98 in1015.2 mb 0.01 in0.3 mm 0.00 in0.0 mm 0.14 in3.6 mm
11:50 PM 57.6°F14.2°C 55.0°F12.8°C 91% 2.9 mph NW4.7 kmh NW 8.9 mph14.3 kmh 29.97 in1014.9 mb 0.02 in0.5 mm 0.06 in1.5 mm 0.01 in0.3 mm